Time;durP1;ratioP1;P1;durP2;ratioP2;P2;SDS_P1;SDS_P2;PMS_P1;PMS_P2;Temp;Humidity;BMP_temperature;BMP_pressure;BME280_temperature;BME280_humidity;BME280_pressure;Samples;Min_cycle;Max_cycle;Signal;HPM_P1;HPM_P2
2022/02/11 00:01:39;;;;;;;0.57;0.47;;;;;;;3.84;100.00;101654.47;6249204;28;20057;-83
2022/02/11 00:07:59;;;;;;;2.20;0.80;;;;;;;3.78;100.00;101650.19;6249075;28;20053;-84
2022/02/11 00:11:01;;;;;;;0.95;0.60;;;;;;;3.78;100.00;101645.00;6249059;28;20057;-83
2022/02/11 00:14:05;;;;;;;3.28;1.30;;;;;;;3.79;100.00;101648.47;6248704;28;20046;-84
2022/02/11 00:17:07;;;;;;;6.95;0.60;;;;;;;3.81;100.00;101649.28;6248320;28;20405;-83
2022/02/11 00:20:09;;;;;;;5.55;0.38;;;;;;;3.80;100.00;101642.38;6248450;28;20409;-84
2022/02/11 00:23:10;;;;;;;4.38;1.33;;;;;;;3.77;100.00;101643.28;6248680;28;20057;-83
2022/02/11 00:26:12;;;;;;;2.17;1.02;;;;;;;3.75;100.00;101642.44;6248579;28;20049;-84
2022/02/11 00:30:13;;;;;;;2.15;0.82;;;;;;;3.76;100.00;101638.94;6248884;28;20401;-83
2022/02/11 00:33:09;;;;;;;3.65;1.08;;;;;;;3.72;100.00;101628.59;6248228;28;20508;-83
2022/02/11 00:36:13;;;;;;;0.40;0.40;;;;;;;3.71;100.00;101624.28;6248266;28;20071;-83
2022/02/11 00:46:16;;;;;;;4.05;0.88;;;;;;;3.65;100.00;101624.34;6248629;28;20053;-84
2022/02/11 01:02:58;;;;;;;1.05;0.63;;;;;;;3.55;100.00;101613.19;6247477;28;20046;-83
2022/02/11 01:06:00;;;;;;;2.58;0.88;;;;;;;3.58;100.00;101614.88;6245515;28;20140;-84
2022/02/11 01:09:02;;;;;;;0.47;0.32;;;;;;;3.63;100.00;101620.91;6247716;28;20053;-85
2022/02/11 01:12:05;;;;;;;2.20;0.85;;;;;;;3.63;100.00;101602.69;6247255;28;20049;-83
2022/02/11 01:15:08;;;;;;;1.95;0.95;;;;;;;3.62;100.00;101601.00;6247325;28;20046;-83
2022/02/11 01:18:12;;;;;;;0.88;0.65;;;;;;;3.61;100.00;101605.31;6247445;28;20046;-83
2022/02/11 01:21:21;;;;;;;6.22;0.50;;;;;;;3.59;100.00;101608.81;6246692;28;20148;-83
2022/02/11 01:24:43;;;;;;;1.73;1.00;;;;;;;3.52;100.00;101618.41;6239187;28;20060;-84
2022/02/11 01:27:57;;;;;;;0.95;0.57;;;;;;;3.49;100.00;101608.03;6242125;28;20045;-83
2022/02/11 01:31:06;;;;;;;5.13;0.70;;;;;;;3.46;100.00;101605.50;6246712;28;20501;-84
2022/02/11 01:34:28;;;;;;;15.13;1.30;;;;;;;3.47;100.00;101602.88;6246736;28;20046;-83
2022/02/11 01:37:37;;;;;;;2.30;1.02;;;;;;;3.49;100.00;101595.06;6247436;28;20060;-84
2022/02/11 01:44:22;;;;;;;1.23;0.80;;;;;;;3.55;100.00;101595.00;6224332;28;20144;-84
2022/02/11 01:47:58;;;;;;;2.35;1.15;;;;;;;3.54;100.00;101594.16;6246816;28;20057;-83
2022/02/11 01:54:33;;;;;;;1.08;0.93;;;;;;;3.59;100.00;101590.63;6237829;28;20560;-82
2022/02/11 01:58:06;;;;;;;1.98;0.85;;;;;;;3.58;100.00;101588.91;6246555;28;20132;-83
2022/02/11 02:01:15;;;;;;;3.92;1.08;;;;;;;3.55;100.00;101580.28;6246205;28;20414;-84
2022/02/11 02:11:28;;;;;;;1.63;0.90;;;;;;;3.45;100.00;101570.88;6246312;28;20049;-84
2022/02/11 02:25:13;;;;;;;2.45;1.35;;;;;;;3.27;100.00;101566.72;6369484;28;20044;-84
2022/02/11 02:28:57;;;;;;;4.10;1.10;;;;;;;3.27;100.00;101561.53;6369304;27;20051;-85
2022/02/11 02:58:26;;;;;;;2.35;0.47;;;;;;;3.07;100.00;101526.22;6333545;27;20411;-86
2022/02/11 03:01:44;;;;;;;3.30;0.85;;;;;;;2.96;100.00;101516.81;6367966;28;20532;-85
2022/02/11 03:15:08;;;;;;;1.02;0.57;;;;;;;2.73;100.00;101508.38;6368001;27;20302;-84
2022/02/11 03:34:38;;;;;;;1.02;0.82;;;;;;;2.38;100.00;101509.50;6349991;28;20056;-85
2022/02/11 03:35:09;;;;;;;0.80;0.80;;;;;;;2.28;100.00;101503.53;6350277;28;20513;-84
2022/02/11 03:51:48;;;;;;;1.02;0.47;;;;;;;2.12;100.00;101488.94;6349896;28;20051;-84
2022/02/11 03:55:34;;;;;;;7.00;1.45;;;;;;;2.09;100.00;101483.81;6350138;28;20058;-84
2022/02/11 04:22:37;;;;;;;15.60;3.65;;;;;;;2.11;100.00;101460.44;6348997;28;20078;-85
2022/02/11 04:25:52;;;;;;;3.63;2.80;;;;;;;2.19;100.00;101451.75;6349124;28;20062;-84
2022/02/11 04:55:27;;;;;;;10.65;3.67;;;;;;;2.51;100.00;101438.50;6337379;28;20056;-83
2022/02/11 05:01:48;;;;;;;6.80;3.55;;;;;;;2.60;100.00;101439.31;6337909;28;20426;-84
2022/02/11 05:04:49;;;;;;;4.85;2.88;;;;;;;2.63;100.00;101442.69;6335909;28;20056;-83
2022/02/11 05:07:51;;;;;;;7.90;3.35;;;;;;;2.66;100.00;101434.91;6333265;28;20048;-83
2022/02/11 05:10:56;;;;;;;7.38;3.85;;;;;;;2.68;100.00;101434.88;6347978;28;20055;-84
2022/02/11 05:13:57;;;;;;;6.40;2.63;;;;;;;2.71;100.00;101442.63;6348217;28;20510;-84
2022/02/11 05:16:58;;;;;;;4.97;2.72;;;;;;;2.72;100.00;101433.97;6348075;28;20047;-86
2022/02/11 05:20:00;;;;;;;8.93;3.42;;;;;;;2.75;100.00;101431.34;6344072;28;20059;-83
2022/02/11 05:23:04;;;;;;;4.93;3.20;;;;;;;2.71;100.00;101417.53;6347525;28;20419;-84
2022/02/11 05:26:07;;;;;;;6.75;3.60;;;;;;;2.70;100.00;101428.81;6347840;28;20446;-83
2022/02/11 05:29:08;;;;;;;7.15;3.55;;;;;;;2.69;100.00;101426.25;6347772;28;20050;-83
2022/02/11 05:32:10;;;;;;;4.47;3.00;;;;;;;2.60;100.00;101409.03;6347191;28;20047;-83
2022/02/11 05:35:19;;;;;;;8.65;3.60;;;;;;;2.53;100.00;101417.72;6333514;28;20063;-85
2022/02/11 05:38:21;;;;;;;4.85;2.72;;;;;;;2.49;100.00;101416.88;6323140;28;20048;-87
2022/02/11 05:41:34;;;;;;;9.10;3.42;;;;;;;2.41;100.00;101426.50;6327193;28;20043;-89
2022/02/11 05:44:36;;;;;;;9.55;4.55;;;;;;;2.34;100.00;101409.25;6348627;28;20059;-88
2022/02/11 05:47:37;;;;;;;6.43;4.45;;;;;;;2.33;100.00;101410.13;6349143;28;20055;-89
2022/02/11 05:50:39;;;;;;;6.95;4.07;;;;;;;2.31;100.00;101411.88;6348236;28;20055;-89
2022/02/11 05:53:40;;;;;;;4.45;3.00;;;;;;;2.35;100.00;101413.56;6347916;28;20054;-89
2022/02/11 05:56:43;;;;;;;4.78;3.25;;;;;;;2.31;100.00;101416.19;6348332;28;20056;-88
2022/02/11 05:59:44;;;;;;;11.20;4.10;;;;;;;2.32;100.00;101411.03;6348174;28;20047;-88
2022/02/11 06:02:46;;;;;;;6.85;3.70;;;;;;;2.36;100.00;101414.41;6348044;28;20050;-87
2022/02/11 06:05:47;;;;;;;8.40;4.93;;;;;;;2.38;100.00;101404.91;6348281;28;20044;-87
2022/02/11 06:08:50;;;;;;;5.28;3.15;;;;;;;2.45;100.00;101409.16;6348176;28;20048;-89
2022/02/11 06:11:53;;;;;;;6.95;3.63;;;;;;;2.38;100.00;101415.28;6347724;28;20055;-88
2022/02/11 06:14:57;;;;;;;6.05;3.85;;;;;;;2.40;100.00;101413.53;6347821;28;20055;-88
2022/02/11 06:17:59;;;;;;;12.00;4.35;;;;;;;2.39;100.00;101422.19;6342215;28;20047;-88
2022/02/11 06:21:00;;;;;;;5.63;2.95;;;;;;;2.42;100.00;101417.84;6322422;28;20506;-88
2022/02/11 06:24:01;;;;;;;6.00;3.50;;;;;;;2.43;100.00;101416.97;6322751;28;20048;-88
2022/02/11 06:27:04;;;;;;;6.57;4.50;;;;;;;2.42;100.00;101419.56;6322787;28;20055;-88
2022/02/11 06:30:07;;;;;;;11.70;2.75;;;;;;;2.44;100.00;101410.88;6322299;28;20058;-87
2022/02/11 06:33:09;;;;;;;5.65;3.10;;;;;;;2.45;100.00;101438.56;6329325;28;20044;-85
2022/02/11 06:36:10;;;;;;;6.05;3.10;;;;;;;2.46;100.00;101421.28;6348152;28;20149;-88
2022/02/11 06:39:17;;;;;;;6.35;3.47;;;;;;;2.47;100.00;101422.97;6348131;28;20051;-89
2022/02/11 06:42:35;;;;;;;6.65;3.35;;;;;;;2.49;100.00;101427.25;6347778;28;20055;-88
2022/02/11 06:45:37;;;;;;;6.00;3.17;;;;;;;2.51;100.00;101424.69;6348809;28;20130;-90
2022/02/11 06:48:38;;;;;;;4.25;3.10;;;;;;;2.53;100.00;101430.69;6348988;28;20059;-90
2022/02/11 06:51:40;;;;;;;4.25;2.78;;;;;;;2.52;100.00;101431.59;6348585;28;20059;-89
2022/02/11 06:54:41;;;;;;;4.78;2.65;;;;;;;2.54;100.00;101428.13;6348281;28;20047;-90
2022/02/11 06:57:44;;;;;;;4.05;1.88;;;;;;;2.57;100.00;101434.13;6347358;28;20052;-89
2022/02/11 07:00:47;;;;;;;3.80;2.05;;;;;;;2.60;100.00;101428.94;6347461;28;20448;-90
2022/02/11 07:03:48;;;;;;;5.18;2.10;;;;;;;2.62;100.00;101433.22;6351003;28;20050;-89
2022/02/11 07:06:50;;;;;;;9.77;2.38;;;;;;;2.64;100.00;101428.88;6352252;28;20414;-88
2022/02/11 07:09:53;;;;;;;10.70;2.17;;;;;;;2.59;100.00;101433.25;6352158;28;20058;-88
2022/02/11 07:12:55;;;;;;;4.10;1.98;;;;;;;2.64;100.00;101435.81;6351655;28;20070;-88
2022/02/11 07:15:57;;;;;;;2.45;2.00;;;;;;;2.64;100.00;101441.00;6351631;28;20054;-89
2022/02/11 07:18:58;;;;;;;3.30;2.03;;;;;;;2.68;100.00;101445.25;6350284;28;20487;-88
2022/02/11 07:22:01;;;;;;;3.28;1.73;;;;;;;2.75;100.00;101449.53;6339597;28;20479;-84
2022/02/11 07:25:04;;;;;;;1.30;1.17;;;;;;;2.80;100.00;101453.78;6339113;28;20059;-83
2022/02/11 07:28:06;;;;;;;7.15;2.00;;;;;;;2.86;100.00;101452.00;6345886;28;20050;-83
2022/02/11 07:31:09;;;;;;;1.65;1.35;;;;;;;2.92;100.00;101463.19;6346897;28;20055;-83
2022/02/11 07:34:11;;;;;;;1.77;1.42;;;;;;;2.95;100.00;101460.59;6337663;27;20044;-82
2022/02/11 07:37:13;;;;;;;7.50;2.08;;;;;;;2.97;100.00;101460.56;6334284;28;20043;-83
2022/02/11 07:40:15;;;;;;;3.90;1.55;;;;;;;3.01;100.00;101462.25;6351526;28;20054;-82
2022/02/11 07:43:19;;;;;;;1.77;1.27;;;;;;;3.01;100.00;101459.66;6335183;28;20040;-82
2022/02/11 07:46:20;;;;;;;1.60;0.90;;;;;;;3.06;100.00;101460.47;6338470;27;20063;-83
2022/02/11 07:49:22;;;;;;;6.82;1.90;;;;;;;3.11;100.00;101456.06;6338601;28;20040;-82
2022/02/11 07:52:25;;;;;;;1.02;0.60;;;;;;;3.09;100.00;101464.75;6347806;28;20055;-82
2022/02/11 07:55:26;;;;;;;1.05;0.85;;;;;;;3.14;100.00;101462.97;6350509;28;20051;-82
2022/02/11 07:58:29;;;;;;;3.75;0.90;;;;;;;3.16;100.00;101476.78;6339547;28;20047;-84
2022/02/11 08:01:30;;;;;;;2.90;1.58;;;;;;;3.18;100.00;101475.03;6351612;28;20066;-82
2022/02/11 08:04:32;;;;;;;1.08;0.80;;;;;;;3.23;100.00;101475.88;6342804;27;20454;-81
2022/02/11 08:07:34;;;;;;;0.95;0.85;;;;;;;3.27;100.00;101464.53;6349780;28;20490;-81
2022/02/11 08:10:35;;;;;;;1.58;0.88;;;;;;;3.22;100.00;101477.56;6344877;28;20047;-83
2022/02/11 08:13:38;;;;;;;1.58;0.50;;;;;;;3.30;100.00;101480.09;6349917;28;20131;-83
2022/02/11 08:16:39;;;;;;;2.13;0.63;;;;;;;3.30;100.00;101480.09;6336402;28;20051;-84
2022/02/11 08:19:41;;;;;;;0.50;0.50;;;;;;;3.38;100.00;101493.84;6325650;28;20495;-86
2022/02/11 08:22:42;;;;;;;0.55;0.25;;;;;;;3.36;100.00;101495.63;6324773;28;20055;-83
2022/02/11 08:25:43;;;;;;;3.90;0.80;;;;;;;3.30;100.00;101496.53;6328376;28;20565;-86
2022/02/11 08:28:47;;;;;;;0.30;0.28;;;;;;;3.34;100.00;101499.97;6348261;28;20054;-83
2022/02/11 08:31:49;;;;;;;1.95;0.68;;;;;;;3.39;100.00;101505.97;6338932;28;20050;-79
2022/02/11 08:34:50;;;;;;;0.60;0.35;;;;;;;3.39;100.00;101515.50;6342230;28;20039;-76
2022/02/11 08:37:51;;;;;;;1.17;0.82;;;;;;;3.47;100.00;101522.31;6341222;28;20039;-80
2022/02/11 08:40:53;;;;;;;1.95;0.73;;;;;;;3.38;100.00;101514.63;6345980;28;20039;-80
2022/02/11 08:43:56;;;;;;;0.20;0.20;;;;;;;3.35;100.00;101525.06;6349838;28;20043;-81
2022/02/11 08:46:57;;;;;;;0.22;0.22;;;;;;;3.29;100.00;101512.16;6349676;28;20039;-83
2022/02/11 08:50:00;;;;;;;2.85;0.63;;;;;;;3.27;100.00;101522.56;6349993;28;20048;-82
2022/02/11 08:53:02;;;;;;;0.52;0.52;;;;;;;3.30;100.00;101532.91;6342828;28;20127;-82
2022/02/11 08:56:05;;;;;;;0.35;0.20;;;;;;;3.27;100.00;101537.25;6349262;28;20506;-83
2022/02/11 08:59:08;;;;;;;0.17;0.17;;;;;;;3.28;100.00;101542.47;6349882;28;20128;-83
2022/02/11 09:02:11;;;;;;;0.10;0.10;;;;;;;3.29;100.00;101551.97;6348862;28;20414;-81
2022/02/11 09:05:12;;;;;;;0.93;0.63;;;;;;;3.32;100.00;101564.06;6349014;28;20048;-82
2022/02/11 09:08:13;;;;;;;0.20;0.20;;;;;;;3.36;100.00;101568.38;6348513;28;20048;-80
2022/02/11 09:11:19;;;;;;;2.25;0.22;;;;;;;3.34;100.00;101571.84;6348986;28;20043;-82
2022/02/11 09:14:22;;;;;;;0.13;0.13;;;;;;;3.36;100.00;101585.66;6334994;28;20186;-81
2022/02/11 09:17:23;;;;;;;1.85;0.30;;;;;;;3.43;100.00;101579.53;6339367;28;20043;-78
2022/02/11 09:20:25;;;;;;;0.50;0.30;;;;;;;3.41;100.00;101586.50;6333412;28;20048;-81
2022/02/11 09:23:27;;;;;;;0.60;0.52;;;;;;;3.45;100.00;101590.75;6341346;28;20051;-83
2022/02/11 09:26:28;;;;;;;0.10;0.10;;;;;;;3.48;100.00;101595.94;6349050;28;20050;-80
2022/02/11 09:29:31;;;;;;;0.55;0.20;;;;;;;3.52;100.00;101610.63;6348976;28;20044;-82
2022/02/11 09:32:34;;;;;;;0.20;0.20;;;;;;;3.50;100.00;101610.66;6373318;27;20061;-82
2022/02/11 09:35:36;;;;;;;2.35;0.85;;;;;;;3.60;100.00;101626.16;6374323;27;20055;-82
2022/02/11 09:38:37;;;;;;;3.00;0.40;;;;;;;3.62;100.00;101632.19;6376488;27;20047;-81
2022/02/11 09:41:39;;;;;;;0.22;0.22;;;;;;;3.68;100.00;101632.09;6374613;27;20490;-81
2022/02/11 09:44:43;;;;;;;3.47;0.22;;;;;;;3.68;100.00;101639.91;6374491;27;20054;-81
2022/02/11 09:47:45;;;;;;;1.80;0.60;;;;;;;3.76;100.00;101657.13;6330736;27;20060;-80
2022/02/11 09:50:49;;;;;;;0.15;0.15;;;;;;;3.77;100.00;101658.00;6324640;28;20051;-78
2022/02/11 09:53:51;;;;;;;0.40;0.15;;;;;;;3.81;100.00;101672.69;6322835;28;20460;-79
2022/02/11 09:56:53;;;;;;;0.63;0.55;;;;;;;3.82;100.00;101684.84;6325121;28;20062;-80
2022/02/11 09:59:56;;;;;;;3.10;0.50;;;;;;;3.84;100.00;101680.47;6345997;28;20047;-81
2022/02/11 10:03:00;;;;;;;1.15;0.40;;;;;;;3.88;100.00;101700.34;6343167;28;20062;-81
2022/02/11 10:06:03;;;;;;;0.10;0.10;;;;;;;3.95;100.00;101711.53;6350601;28;20050;-80
2022/02/11 10:09:05;;;;;;;4.82;0.57;;;;;;;4.01;100.00;101706.31;6349908;28;20050;-81
2022/02/11 10:12:08;;;;;;;0.45;0.20;;;;;;;4.11;100.00;101725.25;6343285;28;20058;-81
2022/02/11 10:15:19;;;;;;;0.63;0.40;;;;;;;4.19;100.00;101726.03;6340954;28;20051;-80
2022/02/11 10:18:25;;;;;;;0.20;0.20;;;;;;;4.22;100.00;101736.41;6341564;28;20044;-80
2022/02/11 10:21:30;;;;;;;0.20;0.10;;;;;;;4.26;100.00;101745.91;6335721;28;20048;-80
2022/02/11 10:24:32;;;;;;;0.57;0.13;;;;;;;4.35;100.00;101761.41;6342910;28;20048;-82
2022/02/11 10:27:35;;;;;;;3.20;0.38;;;;;;;4.38;100.00;101766.59;6343170;28;20047;-79
2022/02/11 10:30:38;;;;;;;0.70;0.30;;;;;;;4.37;100.00;101770.06;6344127;28;20055;-79
2022/02/11 10:34:04;;;;;;;0.25;0.20;;;;;;;4.42;100.00;101786.50;6341959;28;20426;-78
2022/02/11 10:37:10;;;;;;;0.25;0.25;;;;;;;4.37;100.00;101790.88;6339930;28;20047;-82
2022/02/11 10:40:11;;;;;;;0.10;0.10;;;;;;;4.39;100.00;101812.53;6342874;28;20044;-79
2022/02/11 10:43:21;;;;;;;0.32;0.13;;;;;;;4.37;100.00;101824.72;6344569;28;20048;-79
2022/02/11 10:46:25;;;;;;;0.65;0.20;;;;;;;4.38;100.00;101823.84;6339703;28;20080;-79
2022/02/11 10:49:34;;;;;;;0.22;0.20;;;;;;;4.48;100.00;101845.41;6340717;28;20067;-80
2022/02/11 10:52:36;;;;;;;0.93;0.40;;;;;;;4.51;100.00;101850.59;6340392;27;20051;-78
2022/02/11 10:55:47;;;;;;;0.82;0.43;;;;;;;4.52;100.00;101857.53;6340588;28;20052;-78
2022/02/11 10:58:56;;;;;;;0.35;0.25;;;;;;;4.67;100.00;101870.38;6332332;28;20111;-79
2022/02/11 11:02:00;;;;;;;1.25;0.57;;;;;;;4.74;100.00;101881.59;6344607;28;20040;-78
2022/02/11 11:05:01;;;;;;;0.93;0.25;;;;;;;4.60;100.00;101881.75;6341500;28;20044;-79
2022/02/11 11:08:04;;;;;;;0.60;0.50;;;;;;;4.60;100.00;101897.38;6337479;28;20048;-80
2022/02/11 11:11:09;;;;;;;3.35;0.75;;;;;;;4.57;100.00;101895.63;6340812;28;20065;-77
2022/02/11 11:14:12;;;;;;;1.77;0.65;;;;;;;4.54;100.00;101916.50;6344083;28;20510;-79
2022/02/11 11:17:17;;;;;;;3.53;0.60;;;;;;;4.50;100.00;101920.03;6342980;28;20052;-78
2022/02/11 11:20:20;;;;;;;0.40;0.40;;;;;;;4.49;100.00;101927.81;6350338;28;20044;-79
2022/02/11 11:23:23;;;;;;;0.20;0.20;;;;;;;4.42;100.00;101939.19;6330644;28;20093;-78
2022/02/11 11:26:36;;;;;;;0.32;0.32;;;;;;;4.44;100.00;101945.22;6343916;28;20044;-78
2022/02/11 11:29:38;;;;;;;0.30;0.30;;;;;;;4.36;100.00;101963.53;6347351;28;20055;-78
2022/02/11 11:33:01;;;;;;;0.63;0.50;;;;;;;4.31;100.00;101971.38;6344458;28;20269;-79
2022/02/11 11:36:08;;;;;;;0.68;0.50;;;;;;;4.43;100.00;101977.34;6337765;28;20051;-79
2022/02/11 11:39:09;;;;;;;3.58;0.60;;;;;;;4.48;100.00;101985.97;6348700;27;20047;-79
2022/02/11 11:42:13;;;;;;;2.33;1.08;;;;;;;4.51;100.00;102001.56;6351878;28;20430;-76
2022/02/11 11:45:28;;;;;;;0.75;0.65;;;;;;;4.50;100.00;102002.47;6337094;28;20051;-76
2022/02/11 11:48:40;;;;;;;0.77;0.70;;;;;;;4.37;100.00;102016.44;6338695;28;20089;-77
2022/02/11 11:52:07;;;;;;;1.27;0.80;;;;;;;4.28;100.00;102023.41;6341170;28;20039;-78
2022/02/11 11:55:17;;;;;;;5.20;1.33;;;;;;;4.30;100.00;102044.22;6338583;28;20510;-79
2022/02/11 11:58:31;;;;;;;1.58;1.00;;;;;;;4.25;100.00;102054.66;6344730;28;20055;-79
2022/02/11 12:01:51;;;;;;;1.38;1.10;;;;;;;4.33;100.00;102063.28;6341132;28;20490;-78
2022/02/11 12:04:55;;;;;;;1.40;0.77;;;;;;;4.41;100.00;102093.63;6340661;28;20066;-78
2022/02/11 12:07:56;;;;;;;1.05;0.98;;;;;;;4.36;100.00;102101.44;6332452;28;20040;-76
2022/02/11 12:10:59;;;;;;;1.77;0.88;;;;;;;4.27;100.00;102107.56;6339818;28;20063;-76
2022/02/11 12:14:00;;;;;;;1.20;1.00;;;;;;;4.28;100.00;102116.25;6335468;28;20487;-76
2022/02/11 12:17:04;;;;;;;0.90;0.73;;;;;;;4.28;100.00;102132.72;6333959;28;20063;-79
2022/02/11 12:20:08;;;;;;;3.50;1.10;;;;;;;4.31;100.00;102147.44;6337400;28;20043;-81
2022/02/11 12:29:54;;;;;;;1.73;1.00;;;;;;;4.15;100.00;102179.59;6334731;28;20044;-76
2022/02/11 12:32:58;;;;;;;1.17;0.93;;;;;;;4.08;100.00;102194.34;6338624;28;20414;-77
2022/02/11 12:36:09;;;;;;;1.63;1.00;;;;;;;4.15;100.00;102193.47;6338399;28;20043;-77
2022/02/11 12:39:17;;;;;;;2.40;1.30;;;;;;;4.26;100.00;102212.50;6323846;28;20066;-75
2022/02/11 12:42:24;;;;;;;1.50;1.00;;;;;;;4.36;100.00;102202.94;6323058;28;20048;-76
2022/02/11 12:45:29;;;;;;;1.20;0.93;;;;;;;4.41;100.00;102209.00;6322938;28;20043;-77
2022/02/11 12:48:33;;;;;;;3.47;0.88;;;;;;;4.43;100.00;102229.81;6322682;28;20112;-75
2022/02/11 12:51:35;;;;;;;2.25;1.48;;;;;;;4.33;100.00;102236.78;6323676;28;20043;-77
2022/02/11 12:54:37;;;;;;;1.50;1.17;;;;;;;4.35;100.00;102240.22;6338094;28;20515;-76
2022/02/11 12:57:40;;;;;;;2.33;1.20;;;;;;;4.41;100.00;102252.38;6332520;28;20044;-76
2022/02/11 13:00:44;;;;;;;2.05;1.30;;;;;;;4.37;100.00;102254.13;6348384;28;20048;-75
2022/02/11 13:03:48;;;;;;;1.30;0.85;;;;;;;4.36;100.00;102259.31;6344632;28;20483;-74
2022/02/11 13:06:50;;;;;;;3.45;1.27;;;;;;;4.38;100.00;102258.44;6346095;28;20050;-77
2022/02/11 13:09:52;;;;;;;0.93;0.82;;;;;;;4.45;100.00;102274.91;6351934;28;20048;-79
2022/02/11 13:12:54;;;;;;;4.85;1.30;;;;;;;4.51;100.00;102269.69;6352537;28;20518;-78
2022/02/11 13:15:58;;;;;;;2.55;1.10;;;;;;;4.48;100.00;102293.13;6352437;28;20043;-76
2022/02/11 13:19:10;;;;;;;1.27;0.90;;;;;;;4.33;100.00;102297.50;6344750;28;20050;-76
2022/02/11 13:22:12;;;;;;;1.58;1.05;;;;;;;4.26;100.00;102303.56;6350432;28;20055;-80
2022/02/11 13:25:15;;;;;;;3.03;1.73;;;;;;;4.22;100.00;102311.38;6343537;28;20047;-76
2022/02/11 13:28:18;;;;;;;2.03;1.33;;;;;;;4.13;100.00;102321.81;6338371;28;20044;-75
2022/02/11 13:31:20;;;;;;;7.13;0.50;;;;;;;3.92;100.00;102347.00;6332461;28;20047;-74
2022/02/11 13:34:21;;;;;;;0.80;0.50;;;;;;;3.72;100.00;102361.69;6339668;28;20051;-76
2022/02/11 13:37:36;;;;;;;0.75;0.60;;;;;;;3.68;100.00;102367.75;6333341;28;20052;-76
2022/02/11 13:40:38;;;;;;;0.45;0.25;;;;;;;3.66;100.00;102378.16;6329725;28;20486;-76
2022/02/11 13:43:47;;;;;;;0.70;0.40;;;;;;;3.66;100.00;102387.69;6326206;28;20055;-77
2022/02/11 13:46:53;;;;;;;3.65;0.75;;;;;;;3.70;100.00;102407.63;6323778;28;20048;-77
2022/02/11 13:50:01;;;;;;;1.52;0.40;;;;;;;3.74;100.00;102405.03;6321810;28;20051;-75
2022/02/11 13:53:06;;;;;;;3.00;0.22;;;;;;;3.73;100.00;102425.84;6321903;28;20519;-76
2022/02/11 13:56:10;;;;;;;0.57;0.20;;;;;;;3.85;100.00;102436.25;6321653;28;20396;-76
2022/02/11 13:59:13;;;;;;;1.55;0.63;;;;;;;3.84;100.00;102436.25;6328673;28;20043;-79
2022/02/11 14:02:14;;;;;;;2.92;0.52;;;;;;;3.90;100.00;102441.47;6345227;28;20048;-77
2022/02/11 14:05:16;;;;;;;0.57;0.57;;;;;;;3.93;100.00;102447.53;6351258;28;20047;-78
2022/02/11 14:08:19;;;;;;;1.70;0.40;;;;;;;3.95;100.00;102450.13;6339695;28;20055;-78
2022/02/11 14:11:21;;;;;;;0.43;0.20;;;;;;;3.97;100.00;102457.09;6339173;28;20543;-78
2022/02/11 14:14:23;;;;;;;1.77;0.73;;;;;;;4.02;100.00;102470.97;6352475;28;20043;-79
2022/02/11 14:17:26;;;;;;;0.20;0.20;;;;;;;4.08;100.00;102480.50;6345174;28;20062;-79
2022/02/11 14:20:28;;;;;;;0.80;0.30;;;;;;;4.11;100.00;102487.47;6350675;28;20048;-78
2022/02/11 14:23:32;;;;;;;3.15;1.00;;;;;;;4.12;100.00;102503.06;6353177;28;20043;-78
2022/02/11 14:26:34;;;;;;;2.85;1.05;;;;;;;4.09;100.00;102508.28;6352017;28;20058;-79
2022/02/11 14:29:35;;;;;;;0.55;0.35;;;;;;;4.10;100.00;102516.94;6351461;28;20055;-78
2022/02/11 14:32:36;;;;;;;5.63;0.57;;;;;;;4.18;100.00;102521.31;6333434;28;20511;-76
2022/02/11 14:35:38;;;;;;;1.70;0.70;;;;;;;4.19;100.00;102520.44;6335058;28;20047;-76
2022/02/11 14:38:41;;;;;;;3.45;0.85;;;;;;;4.22;100.00;102536.03;6337328;28;20499;-76
2022/02/11 14:41:49;;;;;;;6.05;0.32;;;;;;;4.19;100.00;102545.59;6344866;28;20051;-76
2022/02/11 14:44:52;;;;;;;1.20;0.40;;;;;;;4.12;100.00;102557.69;6337999;28;20486;-75
2022/02/11 14:47:53;;;;;;;2.00;0.40;;;;;;;4.07;100.00;102559.44;6343223;28;20063;-77
2022/02/11 14:50:54;;;;;;;7.38;0.55;;;;;;;4.07;100.00;102562.88;6339066;28;20051;-76
2022/02/11 14:53:58;;;;;;;1.70;0.52;;;;;;;4.07;100.00;102581.09;6345229;28;20442;-77
2022/02/11 14:57:00;;;;;;;0.90;0.30;;;;;;;4.10;100.00;102582.00;6348241;28;20119;-75
2022/02/11 15:00:01;;;;;;;3.33;0.30;;;;;;;4.12;100.00;102581.13;6340126;28;20043;-75
2022/02/11 15:03:03;;;;;;;9.13;1.13;;;;;;;4.16;100.00;102598.47;6344876;28;20153;-75
2022/02/11 15:06:05;;;;;;;5.50;0.60;;;;;;;4.20;100.00;102605.44;6344587;28;20067;-76
2022/02/11 15:09:08;;;;;;;2.35;0.38;;;;;;;4.17;100.00;102595.00;6344923;28;20043;-76
2022/02/11 15:12:10;;;;;;;4.82;0.63;;;;;;;4.21;100.00;102607.16;6345926;28;20410;-75
2022/02/11 15:15:11;;;;;;;1.15;0.32;;;;;;;4.21;100.00;102621.91;6345986;28;20054;-76
2022/02/11 15:18:13;;;;;;;3.83;1.13;;;;;;;4.12;100.00;102627.09;6346308;28;20059;-75
2022/02/11 15:21:14;;;;;;;0.30;0.30;;;;;;;4.10;98.27;102632.28;6345855;28;20052;-76
2022/02/11 15:24:17;;;;;;;1.65;0.32;;;;;;;4.04;96.38;102643.53;6347953;28;20051;-76
2022/02/11 15:27:19;;;;;;;7.20;0.88;;;;;;;3.86;97.83;102632.16;6350911;28;20043;-77
2022/02/11 15:30:20;;;;;;;5.10;0.50;;;;;;;3.85;96.27;102653.84;6350463;28;20050;-76
2022/02/11 15:33:22;;;;;;;0.70;0.30;;;;;;;3.79;89.26;102639.06;6350997;28;20048;-76
2022/02/11 15:36:23;;;;;;;1.50;0.43;;;;;;;3.73;87.23;102655.53;6350842;28;20051;-75
2022/02/11 15:39:26;;;;;;;3.70;1.08;;;;;;;3.79;85.68;102668.56;6346758;28;20044;-75
2022/02/11 15:42:27;;;;;;;1.75;0.30;;;;;;;3.71;86.27;102678.03;6349920;28;20055;-76
2022/02/11 15:45:29;;;;;;;1.48;0.60;;;;;;;3.71;84.76;102683.22;6350566;28;20043;-76
2022/02/11 15:48:30;;;;;;;6.93;0.60;;;;;;;3.59;88.28;102682.28;6350403;28;20070;-77
2022/02/11 15:51:31;;;;;;;3.03;1.08;;;;;;;3.56;87.75;102688.34;6350148;28;20055;-77
2022/02/11 15:54:34;;;;;;;7.22;0.68;;;;;;;3.52;88.28;102710.84;6350217;28;20128;-77
2022/02/11 15:57:36;;;;;;;2.58;0.40;;;;;;;3.46;89.44;102710.78;6350105;28;20142;-76
2022/02/11 16:00:38;;;;;;;1.25;0.60;;;;;;;3.47;87.04;102711.66;6349461;28;20043;-76
2022/02/11 16:03:39;;;;;;;1.45;0.52;;;;;;;3.38;87.49;102709.00;6349991;28;20047;-77
2022/02/11 16:06:41;;;;;;;4.65;0.50;;;;;;;3.37;88.75;102725.44;6350194;28;20063;-76
2022/02/11 16:09:43;;;;;;;5.68;1.00;;;;;;;3.34;86.91;102715.03;6349659;28;20047;-77
2022/02/11 16:12:45;;;;;;;1.75;0.45;;;;;;;3.27;86.86;102732.28;6349600;28;20150;-76
2022/02/11 16:15:47;;;;;;;0.38;0.25;;;;;;;3.33;86.76;102729.75;6342388;28;20054;-75
2022/02/11 16:18:48;;;;;;;1.17;0.90;;;;;;;3.33;86.16;102740.13;6340331;28;20140;-75
2022/02/11 16:21:50;;;;;;;0.50;0.25;;;;;;;3.27;85.92;102735.78;6348197;28;20452;-77
2022/02/11 16:24:53;;;;;;;1.95;0.35;;;;;;;3.18;86.37;102743.47;6348001;28;20051;-76
2022/02/11 16:27:54;;;;;;;11.80;0.63;;;;;;;3.15;89.00;102751.22;6348396;28;20055;-76
2022/02/11 16:30:56;;;;;;;1.35;0.22;;;;;;;3.08;89.16;102767.59;6348406;28;20450;-76
2022/02/11 16:33:57;;;;;;;2.35;0.90;;;;;;;2.99;92.00;102770.09;6350088;28;20051;-76
2022/02/11 16:36:59;;;;;;;1.40;0.68;;;;;;;3.00;91.45;102777.94;6345546;28;20047;-74
2022/02/11 16:40:02;;;;;;;3.45;1.17;;;;;;;2.96;91.92;102776.16;6346628;28;20044;-78
2022/02/11 16:43:03;;;;;;;1.50;0.22;;;;;;;2.94;88.44;102776.97;6350640;28;20066;-78
2022/02/11 16:46:05;;;;;;;16.75;1.30;;;;;;;2.92;91.05;102787.34;6354617;28;20590;-78
2022/02/11 16:49:12;;;;;;;2.33;0.63;;;;;;;2.90;92.36;102794.25;6354262;28;20055;-77
2022/02/11 16:52:13;;;;;;;5.40;0.88;;;;;;;2.83;92.30;102794.16;6353110;28;20047;-76
2022/02/11 16:55:16;;;;;;;4.53;1.00;;;;;;;2.80;93.68;102792.41;6346148;28;20383;-76
2022/02/11 16:58:17;;;;;;;0.30;0.30;;;;;;;2.78;95.71;102810.56;6344378;28;20048;-75
2022/02/11 17:01:19;;;;;;;2.67;0.82;;;;;;;2.76;94.37;102816.56;6337143;28;20051;-76
2022/02/11 17:04:20;;;;;;;2.67;0.93;;;;;;;2.78;98.30;102825.28;6345513;28;20047;-76
2022/02/11 17:07:21;;;;;;;0.65;0.40;;;;;;;2.85;97.36;102821.00;6335197;28;20058;-75
2022/02/11 17:10:24;;;;;;;5.53;0.52;;;;;;;2.88;96.54;102829.72;6343102;28;20058;-76
2022/02/11 17:13:26;;;;;;;1.23;0.63;;;;;;;2.90;99.23;102830.59;6341943;27;20051;-75